Time;durP1;ratioP1;P1;durP2;ratioP2;P2;SDS_P1;SDS_P2;PMS_P1;PMS_P2;Temp;Humidity;BMP_temperature;BMP_pressure;BME280_temperature;BME280_humidity;BME280_pressure;Samples;Min_cycle;Max_cycle;Signal;HPM_P1;HPM_P2
2021/12/23 00:00:19;;;;;;;26.13;20.77;;;;;;;;;;2081596;28;20180;-61
2021/12/23 00:01:19;;;;;;;29.50;22.00;;;;;;;;;;2081449;28;20192;-58
2021/12/23 00:02:19;;;;;;;25.33;20.43;;;;;;;;;;2074123;28;20173;-58
2021/12/23 00:03:19;;;;;;;29.90;22.10;;;;;;;;;;2064755;28;20677;-60
2021/12/23 00:04:20;;;;;;;26.93;21.33;;;;;;;;;;2072683;28;20204;-55
2021/12/23 00:05:20;;;;;;;26.87;21.63;;;;;;;;;;2081917;28;20198;-58
2021/12/23 00:06:20;;;;;;;25.47;20.60;;;;;;;;;;2081491;28;20263;-57
2021/12/23 00:07:21;;;;;;;28.23;21.67;;;;;;;;;;2081479;28;20180;-56
2021/12/23 00:08:21;;;;;;;25.93;20.57;;;;;;;;;;2078685;28;20195;-61
2021/12/23 00:09:26;;;;;;;26.70;21.33;;;;;;;;;;2081935;28;20596;-59
2021/12/23 00:10:26;;;;;;;28.93;21.23;;;;;;;;;;2078355;28;20173;-59
2021/12/23 00:11:27;;;;;;;24.93;21.67;;;;;;;;;;2072738;28;20445;-61
2021/12/23 00:12:27;;;;;;;24.70;19.83;;;;;;;;;;2064862;28;20181;-60
2021/12/23 00:13:28;;;;;;;25.53;20.87;;;;;;;;;;2071723;28;20181;-60
2021/12/23 00:14:28;;;;;;;32.27;22.73;;;;;;;;;;2075698;28;20187;-59
2021/12/23 00:15:32;;;;;;;26.47;20.97;;;;;;;;;;2073903;28;20323;-59
2021/12/23 00:17:56;;;;;;;27.07;21.60;;;;;;;;;;2078221;28;20827;-59
2021/12/23 00:19:03;;;;;;;23.70;19.87;;;;;;;;;;2081712;28;20429;-59
2021/12/23 00:23:46;;;;;;;25.70;19.00;;;;;;;;;;2079301;28;20928;-60
2021/12/23 00:24:47;;;;;;;26.43;19.27;;;;;;;;;;2081339;28;20459;-59
2021/12/23 00:25:47;;;;;;;25.10;19.70;;;;;;;;;;2081578;28;20549;-57
2021/12/23 00:26:48;;;;;;;23.13;19.57;;;;;;;;;;2082071;28;20219;-58
2021/12/23 00:27:48;;;;;;;25.00;19.93;;;;;;;;;;2081304;28;20184;-59
2021/12/23 00:28:48;;;;;;;22.67;19.17;;;;;;;;;;2081598;28;20172;-60
2021/12/23 00:29:48;;;;;;;26.07;19.20;;;;;;;;;;2081294;28;20242;-59
2021/12/23 00:30:49;;;;;;;28.80;22.33;;;;;;;;;;2072726;28;20241;-59
2021/12/23 00:31:49;;;;;;;23.00;18.80;;;;;;;;;;2072659;28;20180;-58
2021/12/23 00:32:49;;;;;;;24.63;19.77;;;;;;;;;;2081697;28;20207;-58
2021/12/23 00:33:50;;;;;;;29.70;23.00;;;;;;;;;;2081515;28;20200;-58
2021/12/23 00:34:50;;;;;;;28.97;22.83;;;;;;;;;;2081634;28;20264;-60
2021/12/23 00:35:52;;;;;;;25.30;21.23;;;;;;;;;;2081711;28;20187;-59
2021/12/23 00:36:54;;;;;;;25.93;21.47;;;;;;;;;;2081474;28;20168;-58
2021/12/23 00:38:02;;;;;;;29.20;23.43;;;;;;;;;;2076623;28;20438;-58
2021/12/23 00:39:05;;;;;;;33.00;25.43;;;;;;;;;;2080862;28;20401;-61
2021/12/23 00:40:07;;;;;;;27.20;22.23;;;;;;;;;;2081110;28;20462;-57
2021/12/23 00:41:08;;;;;;;30.17;23.07;;;;;;;;;;2064632;28;20439;-61
2021/12/23 00:42:09;;;;;;;31.83;24.50;;;;;;;;;;2064427;28;20436;-60
2021/12/23 00:43:09;;;;;;;24.07;20.10;;;;;;;;;;2081958;28;20180;-56
2021/12/23 00:44:09;;;;;;;23.10;19.27;;;;;;;;;;2081716;28;20671;-59
2021/12/23 00:45:09;;;;;;;26.23;20.17;;;;;;;;;;2076511;28;20204;-58
2021/12/23 00:46:10;;;;;;;27.77;22.40;;;;;;;;;;2082261;28;20187;-60
2021/12/23 00:47:10;;;;;;;27.47;19.90;;;;;;;;;;2081812;28;20189;-60
2021/12/23 00:48:11;;;;;;;20.60;18.33;;;;;;;;;;2081790;28;20212;-60
2021/12/23 00:49:11;;;;;;;25.23;20.50;;;;;;;;;;2073488;28;20208;-58
2021/12/23 00:50:11;;;;;;;21.80;18.63;;;;;;;;;;2075016;28;20193;-58
2021/12/23 00:51:13;;;;;;;23.67;19.23;;;;;;;;;;2081196;28;20184;-58
2021/12/23 00:52:17;;;;;;;24.23;20.60;;;;;;;;;;2075170;28;20668;-60
2021/12/23 00:53:19;;;;;;;20.70;18.50;;;;;;;;;;2078937;28;20512;-59
2021/12/23 00:54:20;;;;;;;23.70;19.73;;;;;;;;;;2081296;28;20853;-61
2021/12/23 00:55:20;;;;;;;21.67;18.43;;;;;;;;;;2081679;28;20421;-60
2021/12/23 00:56:21;;;;;;;28.70;19.50;;;;;;;;;;2079470;28;20601;-60
2021/12/23 00:57:27;;;;;;;23.20;19.13;;;;;;;;;;2080253;28;20722;-58
2021/12/23 00:58:27;;;;;;;28.57;22.13;;;;;;;;;;2072211;28;20177;-58
2021/12/23 00:59:27;;;;;;;22.27;18.70;;;;;;;;;;2072555;28;20504;-59
2021/12/23 01:00:28;;;;;;;23.30;18.90;;;;;;;;;;2075706;28;20290;-58
2021/12/23 01:01:28;;;;;;;23.37;18.97;;;;;;;;;;2080769;28;20286;-59
2021/12/23 01:02:31;;;;;;;23.27;19.17;;;;;;;;;;2080768;28;20171;-59
2021/12/23 01:03:31;;;;;;;26.63;19.00;;;;;;;;;;2081325;28;20339;-57
2021/12/23 01:04:32;;;;;;;21.30;18.40;;;;;;;;;;2072641;28;21171;-56
2021/12/23 01:05:33;;;;;;;25.47;19.37;;;;;;;;;;2072732;28;20180;-60
2021/12/23 01:06:33;;;;;;;23.07;20.43;;;;;;;;;;2080925;28;20216;-59
2021/12/23 01:07:33;;;;;;;25.97;19.60;;;;;;;;;;2073046;28;20176;-58
2021/12/23 01:08:34;;;;;;;25.60;19.10;;;;;;;;;;2072607;28;20715;-58
2021/12/23 01:09:34;;;;;;;22.87;18.93;;;;;;;;;;2081331;28;20203;-58
2021/12/23 01:10:35;;;;;;;23.07;18.70;;;;;;;;;;2081511;28;20180;-58
2021/12/23 01:11:35;;;;;;;23.00;18.33;;;;;;;;;;2081995;28;20188;-58
2021/12/23 01:12:49;;;;;;;23.47;18.83;;;;;;;;;;2081016;28;20665;-60
2021/12/23 01:14:01;;;;;;;22.50;18.30;;;;;;;;;;2079091;28;20717;-59
2021/12/23 01:15:38;;;;;;;21.57;18.50;;;;;;;;;;2080070;28;20429;-62
2021/12/23 01:16:49;;;;;;;20.67;17.60;;;;;;;;;;2076337;28;20413;-59
2021/12/23 01:17:57;;;;;;;20.37;18.20;;;;;;;;;;2079467;28;20453;-60
2021/12/23 01:18:59;;;;;;;24.73;19.40;;;;;;;;;;2080989;28;20456;-59
2021/12/23 01:20:01;;;;;;;21.83;17.80;;;;;;;;;;2081581;28;20425;-57
2021/12/23 01:21:14;;;;;;;21.90;17.93;;;;;;;;;;2081256;28;20823;-59
2021/12/23 01:22:14;;;;;;;23.23;17.90;;;;;;;;;;2072345;28;20399;-58
2021/12/23 01:23:16;;;;;;;21.00;16.73;;;;;;;;;;2072700;28;21023;-57
2021/12/23 01:24:16;;;;;;;23.57;18.70;;;;;;;;;;2073411;28;20188;-60
2021/12/23 01:25:16;;;;;;;21.73;18.60;;;;;;;;;;2077566;28;20525;-58
2021/12/23 01:26:19;;;;;;;23.80;18.57;;;;;;;;;;2075094;28;20177;-59
2021/12/23 01:27:20;;;;;;;22.33;18.20;;;;;;;;;;2076446;28;20169;-59
2021/12/23 01:28:20;;;;;;;21.47;18.87;;;;;;;;;;2074313;28;20441;-60
2021/12/23 01:29:21;;;;;;;20.40;17.00;;;;;;;;;;2075679;28;20187;-58
2021/12/23 01:30:21;;;;;;;19.67;17.17;;;;;;;;;;2081821;28;20258;-58
2021/12/23 01:31:22;;;;;;;23.00;18.87;;;;;;;;;;2081508;28;20172;-60
2021/12/23 01:32:23;;;;;;;21.90;18.40;;;;;;;;;;2072689;28;20187;-58
2021/12/23 01:33:23;;;;;;;23.07;17.63;;;;;;;;;;2073618;28;20418;-61
2021/12/23 01:34:24;;;;;;;22.70;17.90;;;;;;;;;;2080965;28;20245;-61
2021/12/23 01:35:25;;;;;;;22.77;19.07;;;;;;;;;;2082107;28;20191;-59
2021/12/23 01:36:26;;;;;;;19.77;17.57;;;;;;;;;;2075212;28;20223;-59
2021/12/23 01:37:26;;;;;;;27.57;18.73;;;;;;;;;;2071074;28;20947;-60
2021/12/23 01:38:26;;;;;;;23.43;18.33;;;;;;;;;;2073758;28;20422;-62
2021/12/23 01:39:27;;;;;;;23.20;18.37;;;;;;;;;;2063982;28;20252;-60
2021/12/23 01:40:28;;;;;;;22.70;18.97;;;;;;;;;;2072202;28;20247;-59
2021/12/23 01:41:29;;;;;;;22.33;18.63;;;;;;;;;;2070958;28;20181;-60
2021/12/23 01:42:29;;;;;;;24.37;18.73;;;;;;;;;;2071941;28;20450;-58
2021/12/23 01:43:29;;;;;;;23.33;18.43;;;;;;;;;;2080753;28;20306;-57
2021/12/23 01:44:31;;;;;;;22.30;17.97;;;;;;;;;;2081064;28;20649;-58
2021/12/23 01:45:32;;;;;;;23.33;18.47;;;;;;;;;;2081861;28;20183;-60
2021/12/23 01:46:33;;;;;;;21.30;17.57;;;;;;;;;;2081936;28;20394;-59
2021/12/23 01:47:33;;;;;;;22.50;18.47;;;;;;;;;;2081866;28;20924;-58
2021/12/23 01:48:33;;;;;;;20.73;18.43;;;;;;;;;;2082571;28;20168;-60
2021/12/23 01:49:34;;;;;;;21.97;18.57;;;;;;;;;;2082779;28;20246;-60
2021/12/23 01:50:37;;;;;;;25.03;19.17;;;;;;;;;;2083066;28;20580;-59
2021/12/23 01:51:37;;;;;;;24.00;18.47;;;;;;;;;;2090244;28;20176;-60
2021/12/23 01:52:38;;;;;;;24.17;18.60;;;;;;;;;;2090844;28;20431;-60
2021/12/23 01:53:39;;;;;;;21.90;17.93;;;;;;;;;;2090973;28;20182;-59
2021/12/23 01:54:39;;;;;;;20.33;17.77;;;;;;;;;;2075810;28;20847;-60
2021/12/23 01:55:42;;;;;;;23.90;19.07;;;;;;;;;;2065437;28;20173;-58
2021/12/23 01:56:42;;;;;;;25.50;19.27;;;;;;;;;;2065567;28;20189;-58
2021/12/23 01:57:43;;;;;;;23.67;19.77;;;;;;;;;;2073434;28;20426;-58
2021/12/23 01:58:43;;;;;;;22.13;18.90;;;;;;;;;;2082009;28;20188;-58
2021/12/23 01:59:44;;;;;;;23.40;19.70;;;;;;;;;;2082270;28;20200;-61
2021/12/23 02:00:49;;;;;;;23.03;18.80;;;;;;;;;;2065517;28;20559;-60
2021/12/23 02:01:50;;;;;;;19.60;17.50;;;;;;;;;;2065873;28;20438;-61
2021/12/23 02:02:51;;;;;;;20.50;17.57;;;;;;;;;;2081931;28;20453;-60
2021/12/23 02:03:52;;;;;;;21.43;18.00;;;;;;;;;;2073685;28;20193;-59
2021/12/23 02:04:52;;;;;;;24.13;19.20;;;;;;;;;;2073772;28;20458;-60
2021/12/23 02:05:52;;;;;;;23.20;19.20;;;;;;;;;;2081905;28;20180;-60
2021/12/23 02:06:53;;;;;;;22.30;18.50;;;;;;;;;;2081276;28;20207;-60
2021/12/23 02:07:53;;;;;;;24.43;19.17;;;;;;;;;;2077045;28;20640;-59
2021/12/23 02:08:53;;;;;;;20.23;18.07;;;;;;;;;;2081861;28;20179;-60
2021/12/23 02:09:55;;;;;;;22.60;18.23;;;;;;;;;;2081942;28;20185;-57
2021/12/23 02:10:57;;;;;;;21.70;17.53;;;;;;;;;;2081729;28;20256;-57
2021/12/23 02:11:57;;;;;;;23.37;18.60;;;;;;;;;;2081621;28;20429;-57
2021/12/23 02:12:57;;;;;;;20.67;18.23;;;;;;;;;;2072939;28;20494;-58
2021/12/23 02:13:58;;;;;;;23.27;19.27;;;;;;;;;;2074912;28;20177;-61
2021/12/23 02:14:58;;;;;;;21.73;18.00;;;;;;;;;;2085816;28;20807;-57
2021/12/23 02:15:58;;;;;;;22.03;18.27;;;;;;;;;;2086854;28;20484;-59
2021/12/23 02:16:58;;;;;;;20.33;17.43;;;;;;;;;;2086918;28;20176;-59
2021/12/23 02:17:59;;;;;;;24.53;19.37;;;;;;;;;;2086837;28;20198;-56
2021/12/23 02:19:02;;;;;;;20.93;18.47;;;;;;;;;;2081875;28;20185;-57
2021/12/23 02:20:03;;;;;;;23.23;18.60;;;;;;;;;;2081588;28;20183;-57
2021/12/23 02:21:05;;;;;;;20.17;18.03;;;;;;;;;;2081527;28;20812;-55
2021/12/23 02:22:05;;;;;;;27.03;19.03;;;;;;;;;;2081094;28;20405;-55
2021/12/23 02:23:08;;;;;;;23.80;17.67;;;;;;;;;;2080877;28;20449;-58
2021/12/23 02:24:09;;;;;;;25.67;18.23;;;;;;;;;;2078363;28;20161;-57
2021/12/23 02:25:10;;;;;;;23.47;18.27;;;;;;;;;;2072361;28;20803;-53
2021/12/23 02:26:10;;;;;;;22.77;18.70;;;;;;;;;;2072983;28;20669;-56
2021/12/23 02:27:11;;;;;;;24.57;18.80;;;;;;;;;;2081348;28;20455;-58
2021/12/23 02:28:15;;;;;;;22.00;17.80;;;;;;;;;;2081574;28;20199;-54
2021/12/23 02:29:15;;;;;;;21.37;19.07;;;;;;;;;;2081306;28;20631;-57
2021/12/23 02:30:17;;;;;;;21.17;17.93;;;;;;;;;;2081655;28;20524;-58
2021/12/23 02:31:17;;;;;;;23.40;18.63;;;;;;;;;;2082826;28;20185;-57
2021/12/23 02:32:18;;;;;;;22.17;19.20;;;;;;;;;;2081155;28;20706;-53
2021/12/23 02:33:19;;;;;;;24.43;19.53;;;;;;;;;;2072684;28;20199;-58
2021/12/23 02:34:20;;;;;;;20.20;17.43;;;;;;;;;;2072537;28;20254;-58
2021/12/23 02:35:21;;;;;;;22.53;18.70;;;;;;;;;;2081344;28;20922;-59
2021/12/23 02:36:21;;;;;;;21.53;18.17;;;;;;;;;;2072834;28;20177;-56
2021/12/23 02:37:21;;;;;;;24.33;19.00;;;;;;;;;;2072696;28;20403;-55
2021/12/23 02:38:22;;;;;;;23.60;19.27;;;;;;;;;;2081476;28;20176;-58
2021/12/23 02:39:24;;;;;;;22.87;18.73;;;;;;;;;;2081377;28;20213;-59
2021/12/23 02:40:26;;;;;;;22.07;18.67;;;;;;;;;;2081479;28;20184;-56
2021/12/23 02:41:26;;;;;;;23.90;18.07;;;;;;;;;;2075812;28;20836;-59
2021/12/23 02:42:26;;;;;;;23.97;18.80;;;;;;;;;;2071785;28;20472;-58
2021/12/23 02:43:27;;;;;;;19.20;17.23;;;;;;;;;;2076339;28;20180;-59
2021/12/23 02:44:28;;;;;;;22.70;18.77;;;;;;;;;;2065335;28;20216;-58
2021/12/23 02:45:28;;;;;;;20.67;17.77;;;;;;;;;;2061097;28;20438;-59
2021/12/23 02:46:28;;;;;;;23.47;18.43;;;;;;;;;;2075395;28;20692;-58
2021/12/23 02:47:28;;;;;;;22.93;18.63;;;;;;;;;;2071813;28;20627;-56
2021/12/23 02:48:30;;;;;;;24.83;18.57;;;;;;;;;;2071463;28;20646;-60
2021/12/23 02:49:31;;;;;;;22.37;17.57;;;;;;;;;;2079742;28;20176;-56
2021/12/23 02:50:32;;;;;;;21.53;18.10;;;;;;;;;;2080534;28;20464;-56
2021/12/23 02:51:32;;;;;;;24.47;19.00;;;;;;;;;;2067518;28;20447;-58
2021/12/23 02:52:34;;;;;;;25.33;18.33;;;;;;;;;;2063583;28;20669;-58
2021/12/23 02:53:35;;;;;;;22.03;18.53;;;;;;;;;;2081949;28;20856;-58
2021/12/23 02:54:35;;;;;;;22.10;18.83;;;;;;;;;;2081531;28;20405;-59
2021/12/23 02:55:35;;;;;;;23.50;17.77;;;;;;;;;;2082910;28;20214;-59
2021/12/23 02:56:36;;;;;;;21.13;18.80;;;;;;;;;;2083054;28;20180;-57
2021/12/23 02:57:36;;;;;;;21.63;18.30;;;;;;;;;;2074250;28;20181;-57
2021/12/23 02:58:36;;;;;;;22.10;18.63;;;;;;;;;;2073732;28;20180;-56
2021/12/23 02:59:37;;;;;;;23.90;19.30;;;;;;;;;;2082449;28;20177;-54
2021/12/23 03:00:38;;;;;;;22.63;18.63;;;;;;;;;;2083325;28;20215;-57
2021/12/23 03:01:38;;;;;;;22.77;18.60;;;;;;;;;;2082978;28;20263;-54
2021/12/23 03:02:39;;;;;;;20.43;18.33;;;;;;;;;;2082077;28;20413;-55
2021/12/23 03:03:40;;;;;;;24.27;18.50;;;;;;;;;;2082895;28;20165;-58
2021/12/23 03:04:41;;;;;;;21.77;18.50;;;;;;;;;;2082465;28;21028;-58
2021/12/23 03:05:45;;;;;;;23.57;18.27;;;;;;;;;;2074318;28;20196;-61
2021/12/23 03:06:45;;;;;;;22.73;18.67;;;;;;;;;;2074879;28;20176;-55
2021/12/23 03:07:45;;;;;;;20.53;17.63;;;;;;;;;;2073857;28;20966;-57
2021/12/23 03:08:50;;;;;;;25.43;18.90;;;;;;;;;;2073821;28;20169;-56
2021/12/23 03:09:50;;;;;;;20.97;17.80;;;;;;;;;;2083500;28;20180;-58
2021/12/23 03:10:51;;;;;;;20.17;17.83;;;;;;;;;;2082826;28;20417;-57
2021/12/23 03:11:51;;;;;;;24.43;19.30;;;;;;;;;;2083061;28;20175;-57
2021/12/23 03:12:51;;;;;;;21.43;19.13;;;;;;;;;;2083328;28;20199;-57
2021/12/23 03:13:52;;;;;;;21.13;18.37;;;;;;;;;;2082763;28;20180;-57
2021/12/23 03:14:52;;;;;;;23.37;18.27;;;;;;;;;;2081903;28;20585;-57
2021/12/23 03:15:53;;;;;;;22.47;18.70;;;;;;;;;;2073442;28;20657;-55
2021/12/23 03:16:53;;;;;;;22.17;17.93;;;;;;;;;;2073716;28;20181;-58
2021/12/23 03:17:53;;;;;;;21.43;17.83;;;;;;;;;;2065542;28;20256;-60
2021/12/23 03:18:53;;;;;;;22.77;18.03;;;;;;;;;;2073775;28;20181;-59
2021/12/23 03:19:53;;;;;;;24.60;18.40;;;;;;;;;;2082346;28;20191;-55
2021/12/23 03:20:54;;;;;;;25.23;18.60;;;;;;;;;;2082610;28;20180;-56
2021/12/23 03:21:55;;;;;;;21.77;18.43;;;;;;;;;;2073418;28;20279;-55
2021/12/23 03:22:55;;;;;;;22.90;19.30;;;;;;;;;;2073684;28;20180;-59
2021/12/23 03:23:55;;;;;;;23.03;18.77;;;;;;;;;;2081646;28;20234;-59
2021/12/23 03:24:55;;;;;;;21.00;18.33;;;;;;;;;;2081407;28;20215;-60
2021/12/23 03:25:56;;;;;;;22.63;17.70;;;;;;;;;;2081638;28;20601;-57
2021/12/23 03:26:56;;;;;;;23.37;19.77;;;;;;;;;;2081641;28;20551;-56
2021/12/23 03:27:56;;;;;;;21.37;18.07;;;;;;;;;;2081325;28;20300;-57
2021/12/23 03:28:57;;;;;;;23.90;19.33;;;;;;;;;;2081267;28;20180;-57
2021/12/23 03:29:57;;;;;;;24.50;18.97;;;;;;;;;;2081460;28;20172;-59
2021/12/23 03:30:58;;;;;;;25.47;20.00;;;;;;;;;;2072644;28;20177;-60
2021/12/23 03:31:58;;;;;;;23.47;18.47;;;;;;;;;;2071907;28;20259;-58
2021/12/23 03:32:58;;;;;;;24.07;18.13;;;;;;;;;;2081461;28;20214;-58
2021/12/23 03:33:59;;;;;;;24.10;19.13;;;;;;;;;;2081233;28;20663;-56
2021/12/23 03:36:03;;;;;;;25.03;19.13;;;;;;;;;;2068425;28;20697;-58
2021/12/23 03:37:03;;;;;;;21.33;18.57;;;;;;;;;;2072586;28;20414;-59
2021/12/23 03:38:04;;;;;;;21.53;17.70;;;;;;;;;;2073477;28;20308;-63
2021/12/23 03:39:05;;;;;;;23.90;18.97;;;;;;;;;;2073328;28;20280;-58
2021/12/23 03:40:05;;;;;;;23.53;19.10;;;;;;;;;;2073290;28;20189;-57
2021/12/23 03:41:05;;;;;;;23.97;17.97;;;;;;;;;;2073753;28;20180;-54
2021/12/23 03:42:06;;;;;;;20.67;18.23;;;;;;;;;;2072911;28;20173;-57
2021/12/23 03:43:06;;;;;;;24.27;18.80;;;;;;;;;;2073376;28;20215;-60
2021/12/23 03:44:07;;;;;;;24.30;19.30;;;;;;;;;;2073568;28;20224;-60
2021/12/23 03:45:08;;;;;;;22.97;19.03;;;;;;;;;;2072665;28;20205;-57
2021/12/23 03:46:08;;;;;;;21.40;19.10;;;;;;;;;;2072704;28;20338;-64
2021/12/23 03:47:09;;;;;;;22.63;18.43;;;;;;;;;;2072986;28;20902;-56
2021/12/23 03:48:09;;;;;;;24.67;18.70;;;;;;;;;;2072320;28;20551;-59
2021/12/23 03:49:10;;;;;;;25.23;19.03;;;;;;;;;;2072081;28;20208;-54
2021/12/23 03:50:10;;;;;;;22.80;18.03;;;;;;;;;;2072901;28;20212;-55
2021/12/23 03:51:10;;;;;;;23.07;18.73;;;;;;;;;;2072861;28;20169;-57
2021/12/23 03:52:11;;;;;;;21.57;17.93;;;;;;;;;;2072797;28;20275;-56
2021/12/23 03:53:12;;;;;;;23.90;18.47;;;;;;;;;;2074321;28;20193;-56
2021/12/23 03:54:13;;;;;;;20.77;17.53;;;;;;;;;;2074341;28;20187;-58
2021/12/23 03:55:14;;;;;;;24.47;19.10;;;;;;;;;;2074514;28;20437;-60
2021/12/23 03:56:15;;;;;;;21.73;18.67;;;;;;;;;;2074208;28;20173;-57
2021/12/23 03:57:15;;;;;;;21.53;17.63;;;;;;;;;;2074787;28;20899;-62
2021/12/23 03:58:15;;;;;;;22.30;18.40;;;;;;;;;;2074184;28;20208;-60
2021/12/23 03:59:15;;;;;;;22.73;18.83;;;;;;;;;;2074647;28;20172;-58
2021/12/23 04:00:18;;;;;;;23.77;18.60;;;;;;;;;;2073465;28;20208;-61
2021/12/23 04:01:19;;;;;;;20.30;18.13;;;;;;;;;;2074182;28;20303;-60
2021/12/23 04:02:19;;;;;;;22.00;18.77;;;;;;;;;;2073964;28;20464;-60
2021/12/23 04:03:20;;;;;;;20.83;18.53;;;;;;;;;;2074579;28;20181;-57
2021/12/23 04:04:20;;;;;;;25.67;18.10;;;;;;;;;;2074009;28;20181;-59
2021/12/23 04:05:20;;;;;;;22.20;18.27;;;;;;;;;;2074553;28;20196;-55
2021/12/23 04:06:21;;;;;;;24.83;19.60;;;;;;;;;;2074121;28;20185;-57
2021/12/23 04:07:22;;;;;;;21.80;18.53;;;;;;;;;;2074348;28;20255;-61
2021/12/23 04:08:22;;;;;;;22.27;18.43;;;;;;;;;;2074373;28;20183;-59
2021/12/23 04:09:22;;;;;;;22.20;18.90;;;;;;;;;;2073469;28;20641;-55
2021/12/23 04:10:22;;;;;;;20.97;18.67;;;;;;;;;;2073558;28;20177;-57
2021/12/23 04:11:23;;;;;;;22.43;19.10;;;;;;;;;;2074155;28;20609;-57
2021/12/23 04:12:23;;;;;;;23.80;19.37;;;;;;;;;;2073895;28;20165;-56
2021/12/23 04:13:24;;;;;;;22.73;19.30;;;;;;;;;;2073420;28;20185;-55
2021/12/23 04:14:24;;;;;;;30.60;23.53;;;;;;;;;;2073372;28;20259;-59
2021/12/23 04:15:24;;;;;;;27.13;21.20;;;;;;;;;;2074251;28;20304;-58
2021/12/23 04:16:24;;;;;;;25.23;20.33;;;;;;;;;;2079071;28;20703;-58
2021/12/23 04:17:25;;;;;;;27.97;21.50;;;;;;;;;;2078069;28;20633;-55
2021/12/23 04:18:25;;;;;;;23.40;19.47;;;;;;;;;;2077294;28;20571;-54
2021/12/23 04:19:30;;;;;;;25.97;19.17;;;;;;;;;;2079314;28;20657;-61
2021/12/23 04:20:35;;;;;;;21.83;18.60;;;;;;;;;;2072585;28;20263;-61
2021/12/23 04:21:35;;;;;;;21.63;17.80;;;;;;;;;;2073073;28;20445;-58
2021/12/23 04:22:36;;;;;;;25.37;19.37;;;;;;;;;;2076321;28;20440;-59
2021/12/23 04:23:36;;;;;;;24.20;19.47;;;;;;;;;;2077162;28;20272;-58
2021/12/23 04:24:36;;;;;;;26.80;21.10;;;;;;;;;;2074505;28;20196;-57
2021/12/23 04:25:36;;;;;;;25.27;19.87;;;;;;;;;;2077686;28;20291;-60
2021/12/23 04:26:38;;;;;;;22.50;20.07;;;;;;;;;;2076631;28;20608;-63
2021/12/23 04:27:38;;;;;;;23.07;18.33;;;;;;;;;;2068676;28;20282;-55
2021/12/23 04:28:46;;;;;;;24.73;19.67;;;;;;;;;;2072850;28;20534;-59
2021/12/23 04:29:46;;;;;;;24.43;19.73;;;;;;;;;;2076097;28;20172;-58
2021/12/23 04:30:46;;;;;;;23.43;18.97;;;;;;;;;;2072796;28;21014;-60
2021/12/23 04:31:47;;;;;;;24.00;18.37;;;;;;;;;;2074385;28;20204;-59
2021/12/23 04:32:47;;;;;;;23.17;19.33;;;;;;;;;;2075536;28;20250;-55
2021/12/23 04:33:49;;;;;;;23.60;19.10;;;;;;;;;;2076104;28;20640;-60
2021/12/23 04:34:49;;;;;;;21.03;18.50;;;;;;;;;;2078919;28;20211;-59
2021/12/23 04:35:49;;;;;;;23.57;19.13;;;;;;;;;;2078707;28;20448;-58
2021/12/23 04:36:49;;;;;;;21.73;18.20;;;;;;;;;;2076691;28;20243;-56
2021/12/23 04:37:49;;;;;;;23.10;18.40;;;;;;;;;;2077048;28;20229;-63
2021/12/23 04:38:50;;;;;;;21.83;19.13;;;;;;;;;;2075365;28;20181;-59
2021/12/23 04:39:50;;;;;;;22.47;19.40;;;;;;;;;;2078920;28;20652;-57
2021/12/23 04:40:50;;;;;;;20.30;18.10;;;;;;;;;;2075472;28;20275;-60
2021/12/23 04:41:51;;;;;;;27.07;20.17;;;;;;;;;;2077422;28;20176;-58
2021/12/23 04:42:51;;;;;;;23.13;18.80;;;;;;;;;;2075832;28;20737;-58
2021/12/23 04:43:51;;;;;;;22.53;17.53;;;;;;;;;;2073281;28;20709;-62
2021/12/23 04:44:52;;;;;;;20.73;17.67;;;;;;;;;;2073710;28;20193;-59
2021/12/23 04:45:52;;;;;;;24.67;18.20;;;;;;;;;;2073271;28;20193;-57
2021/12/23 04:46:52;;;;;;;21.30;18.43;;;;;;;;;;2073974;28;20691;-56
2021/12/23 04:47:53;;;;;;;22.73;18.30;;;;;;;;;;2073726;28;20238;-56
2021/12/23 04:48:53;;;;;;;23.40;19.07;;;;;;;;;;2073425;28;20573;-57
2021/12/23 04:49:53;;;;;;;21.57;18.40;;;;;;;;;;2074243;28;20642;-61
2021/12/23 04:50:53;;;;;;;23.07;17.77;;;;;;;;;;2074044;28;20226;-55
2021/12/23 04:51:54;;;;;;;22.97;18.63;;;;;;;;;;2074124;28;20169;-56
2021/12/23 04:52:54;;;;;;;20.50;18.00;;;;;;;;;;2073752;28;20181;-55
2021/12/23 04:53:54;;;;;;;22.23;17.47;;;;;;;;;;2073901;28;20276;-57
2021/12/23 04:54:54;;;;;;;23.43;18.07;;;;;;;;;;2074116;28;20196;-61
2021/12/23 04:55:55;;;;;;;20.20;17.63;;;;;;;;;;2074052;28;20172;-59
2021/12/23 04:56:55;;;;;;;24.23;18.23;;;;;;;;;;2073836;28;20605;-56
2021/12/23 04:57:55;;;;;;;20.70;18.43;;;;;;;;;;2074580;28;20168;-58
2021/12/23 04:58:55;;;;;;;23.80;18.50;;;;;;;;;;2074002;28;20200;-56
2021/12/23 04:59:56;;;;;;;19.93;17.30;;;;;;;;;;2074618;28;20181;-57
2021/12/23 05:00:57;;;;;;;21.10;18.43;;;;;;;;;;2073779;28;20184;-57
2021/12/23 05:01:57;;;;;;;23.97;18.00;;;;;;;;;;2074084;28;20414;-60
2021/12/23 05:02:57;;;;;;;23.27;17.83;;;;;;;;;;2073526;28;20185;-59
2021/12/23 05:03:58;;;;;;;22.67;18.43;;;;;;;;;;2073727;28;20180;-60
2021/12/23 05:04:58;;;;;;;20.27;17.20;;;;;;;;;;2073738;28;20205;-57
2021/12/23 05:05:58;;;;;;;19.97;17.50;;;;;;;;;;2074797;28;20543;-55
2021/12/23 05:06:58;;;;;;;20.73;17.60;;;;;;;;;;2074324;28;20195;-57
2021/12/23 05:07:59;;;;;;;23.03;18.20;;;;;;;;;;2074558;28;20200;-57
2021/12/23 05:08:59;;;;;;;21.63;17.57;;;;;;;;;;2074338;28;20303;-54
2021/12/23 05:09:59;;;;;;;22.37;17.43;;;;;;;;;;2074371;28;20173;-56
2021/12/23 05:10:59;;;;;;;22.27;19.07;;;;;;;;;;2073973;28;20169;-55
2021/12/23 05:11:59;;;;;;;23.03;18.33;;;;;;;;;;2074166;28;20172;-60
2021/12/23 05:13:01;;;;;;;19.47;17.17;;;;;;;;;;2074017;28;20200;-57
2021/12/23 05:14:02;;;;;;;22.50;17.53;;;;;;;;;;2074166;28;20181;-61
2021/12/23 05:15:02;;;;;;;20.97;18.00;;;;;;;;;;2072729;28;20493;-56
2021/12/23 05:16:03;;;;;;;20.47;18.23;;;;;;;;;;2079970;28;20222;-55
2021/12/23 05:17:03;;;;;;;21.53;18.03;;;;;;;;;;2075828;28;20180;-58
2021/12/23 05:18:04;;;;;;;20.90;17.40;;;;;;;;;;2081102;28;20184;-60
2021/12/23 05:19:04;;;;;;;22.23;17.20;;;;;;;;;;2073806;28;20220;-61
2021/12/23 05:20:06;;;;;;;19.67;17.50;;;;;;;;;;2066958;28;20195;-55
2021/12/23 05:21:06;;;;;;;20.57;17.27;;;;;;;;;;2079510;28;20641;-54
2021/12/23 05:22:06;;;;;;;20.97;17.27;;;;;;;;;;2072841;28;20430;-60
2021/12/23 05:23:07;;;;;;;21.33;17.20;;;;;;;;;;2081617;28;20208;-56
2021/12/23 05:24:07;;;;;;;21.47;17.73;;;;;;;;;;2066746;28;20272;-58
2021/12/23 05:25:08;;;;;;;21.20;17.50;;;;;;;;;;2072490;28;20192;-55
2021/12/23 05:26:08;;;;;;;21.67;17.23;;;;;;;;;;2073290;28;20181;-59
2021/12/23 05:27:08;;;;;;;21.80;17.87;;;;;;;;;;2065738;28;20255;-59
2021/12/23 05:28:09;;;;;;;26.10;18.17;;;;;;;;;;2078369;28;20172;-62
2021/12/23 05:29:11;;;;;;;20.23;16.97;;;;;;;;;;2065625;28;20181;-55
2021/12/23 05:30:13;;;;;;;20.83;18.03;;;;;;;;;;2080444;28;20255;-58
2021/12/23 05:31:13;;;;;;;20.70;17.87;;;;;;;;;;2073950;28;20493;-55
2021/12/23 05:32:14;;;;;;;23.77;17.80;;;;;;;;;;2072930;28;20411;-56
2021/12/23 05:33:14;;;;;;;21.77;16.83;;;;;;;;;;2073634;28;20188;-58
2021/12/23 05:34:14;;;;;;;19.97;17.43;;;;;;;;;;2074364;28;20184;-58
2021/12/23 05:35:16;;;;;;;23.13;17.77;;;;;;;;;;2066603;28;20190;-57
2021/12/23 05:36:16;;;;;;;20.13;17.47;;;;;;;;;;2066514;28;20180;-56
2021/12/23 05:37:16;;;;;;;20.80;16.80;;;;;;;;;;2065666;28;20407;-57
2021/12/23 05:38:16;;;;;;;20.70;16.40;;;;;;;;;;2057241;28;20383;-54
2021/12/23 05:39:16;;;;;;;22.73;19.07;;;;;;;;;;2065487;28;20181;-59
2021/12/23 05:40:18;;;;;;;21.63;18.83;;;;;;;;;;2065661;28;20534;-59
2021/12/23 05:41:18;;;;;;;21.23;18.20;;;;;;;;;;2065813;28;20538;-57
2021/12/23 05:42:19;;;;;;;21.63;17.77;;;;;;;;;;2065183;28;20447;-57
2021/12/23 05:43:19;;;;;;;21.63;17.87;;;;;;;;;;2065697;28;20754;-55
2021/12/23 05:44:19;;;;;;;21.63;19.10;;;;;;;;;;2064916;28;20244;-58
2021/12/23 05:45:20;;;;;;;21.23;18.93;;;;;;;;;;2064976;28;20213;-59
2021/12/23 05:46:20;;;;;;;20.23;17.23;;;;;;;;;;2065294;28;20166;-55
2021/12/23 05:47:20;;;;;;;22.07;17.50;;;;;;;;;;2068654;28;20184;-56
2021/12/23 05:48:20;;;;;;;20.40;17.70;;;;;;;;;;2073009;28;20172;-57
2021/12/23 05:49:21;;;;;;;22.37;18.40;;;;;;;;;;2073237;28;20597;-53
2021/12/23 05:50:23;;;;;;;24.07;18.17;;;;;;;;;;2072160;28;20353;-55
2021/12/23 05:51:23;;;;;;;36.77;25.50;;;;;;;;;;2073407;28;20173;-55
2021/12/23 05:52:23;;;;;;;26.13;21.00;;;;;;;;;;2072375;28;20994;-57
2021/12/23 05:53:24;;;;;;;28.63;22.40;;;;;;;;;;2073301;28;20577;-56
2021/12/23 05:54:24;;;;;;;25.67;20.13;;;;;;;;;;2077482;28;20255;-58
2021/12/23 05:55:24;;;;;;;25.30;20.10;;;;;;;;;;2073273;28;20197;-60
2021/12/23 05:56:25;;;;;;;22.00;19.40;;;;;;;;;;2073434;28;20597;-58
2021/12/23 05:57:25;;;;;;;23.73;18.90;;;;;;;;;;2071949;28;20656;-58
2021/12/23 05:58:25;;;;;;;27.93;19.50;;;;;;;;;;2077753;28;20192;-56
2021/12/23 05:59:25;;;;;;;20.77;18.03;;;;;;;;;;2078334;28;20172;-57
2021/12/23 06:00:27;;;;;;;21.50;18.63;;;;;;;;;;2070217;28;20578;-56